Time;durP1;ratioP1;P1;durP2;ratioP2;P2;SDS_P1;SDS_P2;PMS_P1;PMS_P2;Temp;Humidity;BMP_temperature;BMP_pressure;BME280_temperature;BME280_humidity;BME280_pressure;Samples;Min_cycle;Max_cycle;Signal;HPM_P1;HPM_P2
2023/04/20 00:02:06;;;;;;;6.05;2.58;;;8.30;99.90;;;;;;5111982;28;20527;-68
2023/04/20 00:04:32;;;;;;;5.82;2.08;;;8.40;99.90;;;;;;5112328;28;20038;-68
2023/04/20 00:06:58;;;;;;;6.57;2.67;;;8.40;99.90;;;;;;5092901;28;20039;-68
2023/04/20 00:09:25;;;;;;;4.88;2.20;;;8.40;99.90;;;;;;5092882;28;20066;-68
2023/04/20 00:11:51;;;;;;;6.90;2.35;;;8.50;99.90;;;;;;5110005;28;20032;-68
2023/04/20 00:14:16;;;;;;;7.53;2.35;;;8.50;99.90;;;;;;5083311;28;20449;-68
2023/04/20 00:16:42;;;;;;;4.38;1.95;;;8.50;99.90;;;;;;5095173;28;20561;-68
2023/04/20 00:19:08;;;;;;;6.65;2.45;;;8.50;99.90;;;;;;5096208;28;20035;-68
2023/04/20 00:21:34;;;;;;;6.00;2.28;;;8.50;99.90;;;;;;5112160;28;20411;-68
2023/04/20 00:24:00;;;;;;;7.18;2.08;;;8.50;99.90;;;;;;5112533;28;20058;-68
2023/04/20 00:26:26;;;;;;;4.53;2.08;;;8.60;99.90;;;;;;5108729;28;20035;-68
2023/04/20 00:28:52;;;;;;;6.25;2.13;;;8.60;99.90;;;;;;5112117;28;20028;-68
2023/04/20 00:31:18;;;;;;;7.32;2.00;;;8.60;99.90;;;;;;5095896;28;20035;-68
2023/04/20 00:33:44;;;;;;;8.50;2.25;;;8.60;99.90;;;;;;5111939;28;20042;-68
2023/04/20 00:36:09;;;;;;;5.07;2.30;;;8.70;99.90;;;;;;5100286;28;20036;-68
2023/04/20 00:38:35;;;;;;;5.28;1.92;;;8.70;99.90;;;;;;5092642;28;20032;-68
2023/04/20 00:41:01;;;;;;;7.13;2.00;;;8.70;99.90;;;;;;5092492;28;20040;-68
2023/04/20 00:43:26;;;;;;;5.28;2.10;;;8.70;99.90;;;;;;5075801;28;20555;-68
2023/04/20 00:45:52;;;;;;;4.97;1.98;;;8.70;99.90;;;;;;5092858;28;20036;-68
2023/04/20 00:48:19;;;;;;;7.57;2.40;;;8.70;99.90;;;;;;5075478;28;20043;-68
2023/04/20 00:50:45;;;;;;;7.07;2.15;;;8.80;99.90;;;;;;5092523;28;20396;-68
2023/04/20 00:53:12;;;;;;;5.20;2.17;;;8.70;99.90;;;;;;5091747;28;20127;-68
2023/04/20 00:55:38;;;;;;;4.68;1.88;;;8.70;99.90;;;;;;5098332;28;20048;-68
2023/04/20 00:58:05;;;;;;;5.18;1.92;;;8.80;99.90;;;;;;5096878;28;20517;-68
2023/04/20 01:00:31;;;;;;;4.80;1.98;;;8.80;99.90;;;;;;5091708;28;20388;-68
2023/04/20 01:02:56;;;;;;;3.60;1.80;;;8.80;99.90;;;;;;5075525;28;20035;-68
2023/04/20 01:05:22;;;;;;;6.57;2.00;;;8.80;99.90;;;;;;5083810;28;20076;-68
2023/04/20 01:07:48;;;;;;;5.82;2.20;;;8.80;99.90;;;;;;5112536;28;20491;-68
2023/04/20 01:10:14;;;;;;;5.88;1.90;;;8.80;99.90;;;;;;5095517;28;20119;-68
2023/04/20 01:12:39;;;;;;;5.90;1.77;;;8.80;99.90;;;;;;5095329;28;20169;-68
2023/04/20 01:15:07;;;;;;;6.15;2.25;;;8.80;99.90;;;;;;5094748;28;20039;-68
2023/04/20 01:17:33;;;;;;;5.07;2.15;;;8.80;99.90;;;;;;5095400;28;20032;-68
2023/04/20 01:19:59;;;;;;;5.47;2.08;;;8.80;99.90;;;;;;5111472;28;20390;-68
2023/04/20 01:22:25;;;;;;;5.57;2.20;;;8.80;99.90;;;;;;5112173;28;20134;-68
2023/04/20 01:24:51;;;;;;;7.03;2.25;;;8.80;99.90;;;;;;5108124;28;20101;-68
2023/04/20 01:27:17;;;;;;;7.13;2.08;;;8.80;99.90;;;;;;5091842;28;20039;-68
2023/04/20 01:29:44;;;;;;;4.88;1.92;;;8.80;99.90;;;;;;5075099;28;20036;-68
2023/04/20 01:32:10;;;;;;;4.40;1.83;;;8.80;99.90;;;;;;5108767;28;20541;-68
2023/04/20 01:34:36;;;;;;;6.93;2.20;;;8.80;99.90;;;;;;5104915;28;20085;-68
2023/04/20 01:37:06;;;;;;;5.57;2.10;;;8.80;99.90;;;;;;5091276;28;20082;-68
2023/04/20 01:39:36;;;;;;;5.90;1.95;;;8.80;99.90;;;;;;5091849;28;20553;-68
2023/04/20 01:42:01;;;;;;;3.97;1.85;;;8.80;99.90;;;;;;5091976;28;20043;-68
2023/04/20 01:44:27;;;;;;;5.38;1.80;;;8.80;99.90;;;;;;5091315;28;20040;-68
2023/04/20 01:46:52;;;;;;;6.82;1.90;;;8.80;99.90;;;;;;5112106;28;20028;-68
2023/04/20 01:49:18;;;;;;;6.78;2.28;;;8.80;99.90;;;;;;5075659;28;20032;-68
2023/04/20 01:51:44;;;;;;;5.00;2.10;;;8.80;99.90;;;;;;5091628;28;20127;-68
2023/04/20 01:54:09;;;;;;;4.35;2.13;;;8.80;99.90;;;;;;5091332;28;20036;-68
2023/04/20 01:56:35;;;;;;;6.22;1.77;;;8.80;99.90;;;;;;5091471;28;20094;-68
2023/04/20 01:59:00;;;;;;;6.85;2.30;;;8.80;99.90;;;;;;5091176;28;20465;-68
2023/04/20 02:01:26;;;;;;;5.57;2.00;;;8.80;99.90;;;;;;5091704;28;20032;-68
2023/04/20 02:03:51;;;;;;;4.53;1.75;;;8.80;99.90;;;;;;5091234;28;20130;-68
2023/04/20 02:06:17;;;;;;;4.93;1.98;;;8.80;99.90;;;;;;5091603;28;20511;-68
2023/04/20 02:08:42;;;;;;;6.47;2.10;;;8.70;99.90;;;;;;5103886;28;20403;-68
2023/04/20 02:11:08;;;;;;;5.00;2.00;;;8.70;99.90;;;;;;5114160;28;20117;-68
2023/04/20 02:13:34;;;;;;;7.82;1.98;;;8.70;99.90;;;;;;5098933;28;20040;-68
2023/04/20 02:15:59;;;;;;;3.78;1.60;;;8.70;99.90;;;;;;5113709;28;20036;-68
2023/04/20 02:18:25;;;;;;;6.70;2.10;;;8.70;99.90;;;;;;5087119;28;20100;-68
2023/04/20 02:20:50;;;;;;;7.35;1.85;;;8.70;99.90;;;;;;5095157;28;20408;-68
2023/04/20 02:23:16;;;;;;;5.88;2.05;;;8.60;99.90;;;;;;5095023;28;20071;-68
2023/04/20 02:25:41;;;;;;;6.78;2.00;;;8.60;99.90;;;;;;5092163;28;20032;-68
2023/04/20 02:28:07;;;;;;;5.80;2.00;;;8.60;99.90;;;;;;5094503;28;20024;-68
2023/04/20 02:30:32;;;;;;;6.05;1.95;;;8.60;99.90;;;;;;5094234;28;20032;-68
2023/04/20 02:32:58;;;;;;;7.03;1.98;;;8.60;99.90;;;;;;5078193;28;20032;-68
2023/04/20 02:35:24;;;;;;;5.35;1.98;;;8.60;99.90;;;;;;5109550;28;20108;-68
2023/04/20 02:37:50;;;;;;;5.18;2.13;;;8.60;99.90;;;;;;5096439;28;20028;-69
2023/04/20 02:40:16;;;;;;;5.63;2.63;;;8.60;99.90;;;;;;5104873;28;20081;-68
2023/04/20 02:42:42;;;;;;;6.95;2.05;;;8.70;99.90;;;;;;5106901;28;20145;-68
2023/04/20 02:45:08;;;;;;;6.63;2.10;;;8.70;99.90;;;;;;5115000;28;20110;-68
2023/04/20 02:47:34;;;;;;;6.43;2.20;;;8.70;99.90;;;;;;5111698;28;20032;-68
2023/04/20 02:49:59;;;;;;;7.15;2.20;;;8.70;99.90;;;;;;5094591;28;20036;-68
2023/04/20 02:52:25;;;;;;;7.55;2.30;;;8.70;99.90;;;;;;5094446;28;20036;-68
2023/04/20 02:54:51;;;;;;;5.20;2.08;;;8.70;99.90;;;;;;5097205;28;20432;-68
2023/04/20 02:57:16;;;;;;;5.88;2.05;;;8.70;99.90;;;;;;5097881;28;20051;-68
2023/04/20 02:59:42;;;;;;;4.13;1.67;;;8.70;99.90;;;;;;5096734;28;20042;-68
2023/04/20 03:02:07;;;;;;;6.30;2.17;;;8.70;99.90;;;;;;5114667;28;20048;-68
2023/04/20 03:04:33;;;;;;;7.85;2.40;;;8.70;99.90;;;;;;5095367;28;20057;-68
2023/04/20 03:07:00;;;;;;;6.18;2.33;;;8.70;99.90;;;;;;5114659;28;20092;-68
2023/04/20 03:09:26;;;;;;;4.10;1.80;;;8.70;99.90;;;;;;5096377;28;20046;-68
2023/04/20 03:11:53;;;;;;;4.80;1.90;;;8.70;99.90;;;;;;5094339;28;20139;-68
2023/04/20 03:14:19;;;;;;;4.47;2.05;;;8.70;99.90;;;;;;5094408;28;20400;-68
2023/04/20 03:16:45;;;;;;;6.00;2.10;;;8.80;99.90;;;;;;5112773;28;20096;-68
2023/04/20 03:19:10;;;;;;;8.68;2.30;;;8.80;99.90;;;;;;5110947;28;20487;-68
2023/04/20 03:21:36;;;;;;;5.43;2.13;;;8.80;99.90;;;;;;5114003;28;20035;-68
2023/04/20 03:24:02;;;;;;;5.70;1.98;;;8.80;99.90;;;;;;5113981;28;20126;-68
2023/04/20 03:26:28;;;;;;;7.03;2.10;;;8.80;99.90;;;;;;5080372;28;20111;-68
2023/04/20 03:28:53;;;;;;;8.18;2.35;;;8.70;99.90;;;;;;5100899;28;20028;-68
2023/04/20 03:31:19;;;;;;;5.28;2.05;;;8.80;99.90;;;;;;5094073;28;20036;-68
2023/04/20 03:33:44;;;;;;;6.72;3.92;;;8.80;99.90;;;;;;5093750;28;20040;-69
2023/04/20 03:36:10;;;;;;;7.65;2.35;;;8.70;99.90;;;;;;5077260;28;20040;-68
2023/04/20 03:38:36;;;;;;;6.10;2.10;;;8.80;99.90;;;;;;5093069;28;20126;-68
2023/04/20 03:41:02;;;;;;;8.10;1.83;;;8.70;99.90;;;;;;5113004;28;20519;-68
2023/04/20 03:43:27;;;;;;;5.18;1.98;;;8.70;99.90;;;;;;5096915;28;20381;-68
2023/04/20 03:45:54;;;;;;;6.50;2.35;;;8.70;99.90;;;;;;5084435;28;20076;-68
2023/04/20 03:48:19;;;;;;;8.32;2.10;;;8.70;99.90;;;;;;5093289;28;20115;-68
2023/04/20 03:50:45;;;;;;;6.65;2.15;;;8.70;99.90;;;;;;5076669;28;20468;-68
2023/04/20 03:53:10;;;;;;;7.20;2.20;;;8.70;99.90;;;;;;5093501;28;20039;-68
2023/04/20 03:55:36;;;;;;;7.30;1.73;;;8.70;99.90;;;;;;5104275;28;20101;-68
2023/04/20 03:58:02;;;;;;;6.93;2.00;;;8.80;99.90;;;;;;5108597;28;20040;-69
2023/04/20 04:00:27;;;;;;;8.98;2.13;;;8.80;99.90;;;;;;5076607;28;20106;-68
2023/04/20 04:02:53;;;;;;;4.88;1.98;;;8.80;99.90;;;;;;5095576;28;20040;-68
2023/04/20 04:05:18;;;;;;;5.85;2.20;;;8.80;99.90;;;;;;5112363;28;20051;-68
2023/04/20 04:07:44;;;;;;;4.18;1.73;;;8.90;99.90;;;;;;5095260;28;20408;-68
2023/04/20 04:10:10;;;;;;;2.70;1.45;;;8.80;99.90;;;;;;5096674;28;20035;-68
2023/04/20 04:12:35;;;;;;;5.63;2.22;;;8.80;99.90;;;;;;5113337;28;20039;-68
2023/04/20 04:15:01;;;;;;;5.95;1.85;;;8.80;99.90;;;;;;5108192;28;20040;-68
2023/04/20 04:17:27;;;;;;;5.35;2.17;;;8.70;99.90;;;;;;5093472;28;20090;-68
2023/04/20 04:19:52;;;;;;;6.03;2.15;;;8.70;99.90;;;;;;5092372;28;20491;-68
2023/04/20 04:22:18;;;;;;;5.97;2.40;;;8.70;99.90;;;;;;5092860;28;20051;-68
2023/04/20 04:24:44;;;;;;;5.85;2.28;;;8.70;99.90;;;;;;5079535;28;20035;-68
2023/04/20 04:27:13;;;;;;;5.38;2.30;;;8.70;99.90;;;;;;5112347;28;20039;-68
2023/04/20 04:29:40;;;;;;;6.30;2.20;;;8.60;99.90;;;;;;5109296;28;20040;-68
2023/04/20 04:32:06;;;;;;;5.97;1.70;;;8.60;99.90;;;;;;5096091;28;20036;-68
2023/04/20 04:34:33;;;;;;;4.72;2.00;;;8.60;99.90;;;;;;5111062;28;20048;-68
2023/04/20 04:37:00;;;;;;;5.00;1.90;;;8.60;99.90;;;;;;5091457;28;20039;-68
2023/04/20 04:39:26;;;;;;;8.40;2.15;;;8.70;99.90;;;;;;5099832;28;20128;-68
2023/04/20 04:41:52;;;;;;;5.13;1.95;;;8.50;99.90;;;;;;5096146;28;20040;-68
2023/04/20 04:44:18;;;;;;;5.82;2.03;;;8.50;99.90;;;;;;5095795;28;20505;-68
2023/04/20 04:46:44;;;;;;;5.43;2.05;;;8.40;99.90;;;;;;5110761;28;20391;-68
2023/04/20 04:49:10;;;;;;;5.38;2.00;;;8.40;99.90;;;;;;5129840;27;20538;-68
2023/04/20 04:51:36;;;;;;;5.60;2.30;;;8.40;99.90;;;;;;5095709;28;20552;-68
2023/04/20 04:54:02;;;;;;;7.82;2.30;;;8.30;99.90;;;;;;5095559;28;20035;-68
2023/04/20 04:56:27;;;;;;;6.60;2.00;;;8.20;99.90;;;;;;5109641;28;20079;-68
2023/04/20 04:58:53;;;;;;;3.78;1.55;;;8.20;99.90;;;;;;5092392;28;20502;-68
2023/04/20 05:01:19;;;;;;;5.35;1.83;;;8.20;99.90;;;;;;5095572;28;20038;-68
2023/04/20 05:03:45;;;;;;;5.50;2.38;;;8.20;99.90;;;;;;5095667;28;20386;-68
2023/04/20 05:06:11;;;;;;;6.07;2.05;;;8.20;99.90;;;;;;5097299;28;20028;-68
2023/04/20 05:08:36;;;;;;;7.35;2.08;;;8.30;99.90;;;;;;5091996;28;20040;-68
2023/04/20 05:11:02;;;;;;;5.63;1.83;;;8.10;99.90;;;;;;5091660;28;20074;-68
2023/04/20 05:13:28;;;;;;;6.85;2.08;;;8.10;99.90;;;;;;5092315;28;20035;-68
2023/04/20 05:15:53;;;;;;;6.97;2.08;;;8.10;99.90;;;;;;5074866;28;20040;-68
2023/04/20 05:18:19;;;;;;;4.68;1.90;;;8.00;99.90;;;;;;5092432;28;20122;-69
2023/04/20 05:20:44;;;;;;;7.18;2.08;;;8.00;99.90;;;;;;5091992;28;20039;-69
2023/04/20 05:23:10;;;;;;;4.80;1.83;;;7.90;99.90;;;;;;5094519;28;20535;-69
2023/04/20 05:25:36;;;;;;;5.63;1.85;;;8.00;99.90;;;;;;5085615;28;20044;-69
2023/04/20 05:28:02;;;;;;;6.95;2.40;;;8.10;99.90;;;;;;5091885;28;20069;-69
2023/04/20 05:30:28;;;;;;;7.82;2.25;;;8.00;99.90;;;;;;5092498;28;20032;-69
2023/04/20 05:32:53;;;;;;;4.55;1.80;;;8.00;99.90;;;;;;5112189;28;20031;-69
2023/04/20 05:35:20;;;;;;;6.40;2.08;;;8.00;99.90;;;;;;5101894;28;20086;-69
2023/04/20 05:37:46;;;;;;;6.45;2.58;;;7.90;99.90;;;;;;5095618;28;20050;-69
2023/04/20 05:40:12;;;;;;;5.63;2.22;;;7.90;99.90;;;;;;5112141;28;20043;-69
2023/04/20 05:42:37;;;;;;;5.15;2.47;;;7.90;99.90;;;;;;5112412;28;20031;-69
2023/04/20 05:45:03;;;;;;;6.15;2.13;;;7.90;99.90;;;;;;5102070;28;20041;-69
2023/04/20 05:47:29;;;;;;;8.50;2.72;;;8.00;99.90;;;;;;5095882;28;20040;-69
2023/04/20 05:49:55;;;;;;;6.47;2.50;;;7.90;99.90;;;;;;5095651;28;20038;-69
2023/04/20 05:52:20;;;;;;;4.20;1.70;;;7.80;99.90;;;;;;5079336;28;20040;-69
2023/04/20 05:54:46;;;;;;;5.40;2.20;;;8.00;99.90;;;;;;5095842;28;20093;-69
2023/04/20 05:57:12;;;;;;;6.20;2.50;;;7.80;99.90;;;;;;5094966;28;20058;-69
2023/04/20 05:59:37;;;;;;;5.43;2.30;;;7.80;99.90;;;;;;5111566;28;20041;-69
2023/04/20 06:02:03;;;;;;;5.30;2.13;;;7.70;99.90;;;;;;5115868;28;20040;-68
2023/04/20 06:04:29;;;;;;;5.57;2.38;;;7.80;99.90;;;;;;5112660;28;20036;-68
2023/04/20 06:06:55;;;;;;;7.47;2.63;;;7.80;99.90;;;;;;5099977;28;20054;-68
2023/04/20 06:09:20;;;;;;;6.80;2.42;;;7.80;99.90;;;;;;5098819;28;20039;-69
2023/04/20 06:11:46;;;;;;;5.10;2.15;;;7.70;99.90;;;;;;5098729;28;20110;-69
2023/04/20 06:14:13;;;;;;;5.10;2.30;;;7.70;99.90;;;;;;5103674;28;20480;-69
2023/04/20 06:16:39;;;;;;;4.00;1.90;;;7.70;99.90;;;;;;5096736;28;20047;-69
2023/04/20 06:19:05;;;;;;;5.65;2.20;;;7.70;99.90;;;;;;5102904;28;20114;-68
2023/04/20 06:21:33;;;;;;;5.68;2.20;;;7.70;99.90;;;;;;5112366;28;20119;-69
2023/04/20 06:23:58;;;;;;;7.55;2.53;;;7.60;99.90;;;;;;5115348;28;20516;-68
2023/04/20 06:26:24;;;;;;;10.23;2.80;;;7.60;99.90;;;;;;5115443;28;20075;-69
2023/04/20 06:28:51;;;;;;;7.45;2.25;;;7.60;99.90;;;;;;5093003;28;20028;-69
2023/04/20 06:31:18;;;;;;;5.47;2.30;;;7.60;99.90;;;;;;5108322;28;20035;-68
2023/04/20 06:33:43;;;;;;;7.15;2.20;;;7.60;99.90;;;;;;5114207;28;20043;-68
2023/04/20 06:36:09;;;;;;;6.43;2.10;;;7.60;99.90;;;;;;5111195;28;20042;-69
2023/04/20 06:38:35;;;;;;;5.07;2.25;;;7.60;99.90;;;;;;5094418;27;20085;-69
2023/04/20 06:41:01;;;;;;;6.53;2.50;;;7.70;99.90;;;;;;5100277;28;20044;-69
2023/04/20 06:43:27;;;;;;;6.47;2.67;;;7.70;99.90;;;;;;5088871;28;20403;-68
2023/04/20 06:45:53;;;;;;;7.43;2.42;;;7.70;99.90;;;;;;5080006;28;20170;-69
2023/04/20 06:48:19;;;;;;;4.90;2.17;;;7.60;99.90;;;;;;5100352;28;20540;-68
2023/04/20 06:50:48;;;;;;;7.28;2.90;;;7.60;99.90;;;;;;5093905;28;20044;-69
2023/04/20 06:53:14;;;;;;;7.55;2.63;;;7.50;99.90;;;;;;5087457;28;20043;-69
2023/04/20 06:55:39;;;;;;;8.45;2.65;;;7.50;99.90;;;;;;5100043;28;20408;-69
2023/04/20 06:58:05;;;;;;;6.10;2.42;;;7.50;99.90;;;;;;5097048;28;20061;-69
2023/04/20 07:00:32;;;;;;;8.57;3.22;;;7.60;99.90;;;;;;5106653;28;20407;-69
2023/04/20 07:02:57;;;;;;;6.55;2.60;;;7.50;99.90;;;;;;5092558;28;20122;-69
2023/04/20 07:05:23;;;;;;;4.15;2.05;;;7.40;99.90;;;;;;5109775;28;20050;-69
2023/04/20 07:07:48;;;;;;;6.50;2.45;;;7.40;99.90;;;;;;5101267;28;20031;-69
2023/04/20 07:10:15;;;;;;;8.77;3.05;;;7.30;99.90;;;;;;5080186;28;20110;-69
2023/04/20 07:12:41;;;;;;;9.13;2.78;;;7.30;99.90;;;;;;5107567;28;20036;-69
2023/04/20 07:15:07;;;;;;;8.02;2.80;;;7.20;99.90;;;;;;5111455;28;20054;-69
2023/04/20 07:17:33;;;;;;;6.22;3.08;;;7.10;99.90;;;;;;5091761;28;20035;-69
2023/04/20 07:20:07;;;;;;;6.57;2.47;;;7.10;99.90;;;;;;5091439;28;20031;-69
2023/04/20 07:22:37;;;;;;;7.30;2.88;;;7.20;99.90;;;;;;5107854;28;20456;-69
2023/04/20 07:25:04;;;;;;;8.02;2.90;;;7.10;99.90;;;;;;5118560;27;20036;-69
2023/04/20 07:27:34;;;;;;;8.38;2.92;;;7.20;99.90;;;;;;5094987;28;20066;-69
2023/04/20 07:30:00;;;;;;;6.65;2.70;;;7.20;99.90;;;;;;5095780;28;20036;-69
2023/04/20 07:32:26;;;;;;;6.32;2.80;;;7.10;99.90;;;;;;5104907;28;20038;-69
2023/04/20 07:34:51;;;;;;;7.25;3.40;;;7.10;99.90;;;;;;5093743;28;20131;-69
2023/04/20 07:37:17;;;;;;;9.32;3.65;;;7.00;99.90;;;;;;5081571;28;20044;-69
2023/04/20 07:39:43;;;;;;;6.35;3.08;;;6.90;99.90;;;;;;5090045;28;20036;-69
2023/04/20 07:42:08;;;;;;;7.78;3.35;;;6.90;99.90;;;;;;5096528;28;20035;-69
2023/04/20 07:44:34;;;;;;;6.57;3.13;;;7.00;99.90;;;;;;5106180;28;20127;-70
2023/04/20 07:47:01;;;;;;;7.68;3.50;;;6.90;99.90;;;;;;5091610;28;20491;-70
2023/04/20 07:49:26;;;;;;;7.93;3.97;;;7.10;99.90;;;;;;5089933;28;20070;-70
2023/04/20 07:51:52;;;;;;;7.53;2.88;;;7.00;99.90;;;;;;5086165;28;20039;-70
2023/04/20 07:54:18;;;;;;;7.15;3.60;;;7.20;99.90;;;;;;5101391;28;20084;-70
2023/04/20 07:56:43;;;;;;;7.90;3.25;;;7.30;99.90;;;;;;5109050;28;20058;-70
2023/04/20 07:59:09;;;;;;;8.07;3.30;;;7.30;99.90;;;;;;5109922;28;20408;-70
2023/04/20 08:01:35;;;;;;;7.78;3.47;;;7.30;99.90;;;;;;5110070;28;20124;-70
2023/04/20 08:04:01;;;;;;;6.32;2.90;;;7.40;99.90;;;;;;5084813;28;20042;-70
2023/04/20 08:06:27;;;;;;;6.88;3.20;;;7.50;99.90;;;;;;5110284;28;20396;-70
2023/04/20 08:08:52;;;;;;;7.88;3.10;;;7.60;99.90;;;;;;5117389;27;20040;-70
2023/04/20 08:11:18;;;;;;;7.53;3.25;;;7.60;99.90;;;;;;5078460;28;20142;-70
2023/04/20 08:13:44;;;;;;;7.28;3.22;;;7.60;99.90;;;;;;5100918;28;20044;-70
2023/04/20 08:16:09;;;;;;;7.00;2.75;;;7.60;99.90;;;;;;5106133;28;20046;-70
2023/04/20 08:18:35;;;;;;;6.72;2.90;;;7.50;99.90;;;;;;5080770;28;20173;-70
2023/04/20 08:21:00;;;;;;;7.95;3.45;;;7.50;99.90;;;;;;5092707;28;20071;-69
2023/04/20 08:23:26;;;;;;;7.53;3.08;;;7.50;99.90;;;;;;5096127;28;20043;-69
2023/04/20 08:25:55;;;;;;;5.25;2.63;;;7.60;99.90;;;;;;5082763;28;20036;-69
2023/04/20 08:28:22;;;;;;;6.28;3.10;;;7.60;99.90;;;;;;5092747;28;20036;-69
2023/04/20 08:30:47;;;;;;;6.10;2.70;;;7.70;99.90;;;;;;5098598;28;20031;-69
2023/04/20 08:33:13;;;;;;;6.72;2.92;;;7.70;99.90;;;;;;5081290;28;20385;-69
2023/04/20 08:35:38;;;;;;;5.85;2.85;;;7.70;99.90;;;;;;5082187;28;20122;-69
2023/04/20 08:38:04;;;;;;;7.32;2.78;;;7.80;99.90;;;;;;5112243;27;20042;-69
2023/04/20 08:40:31;;;;;;;6.55;2.72;;;7.90;99.90;;;;;;5089033;28;20036;-69
2023/04/20 08:42:58;;;;;;;7.05;3.55;;;7.80;99.90;;;;;;5095343;28;20500;-69
2023/04/20 08:45:25;;;;;;;5.90;2.88;;;7.70;99.90;;;;;;5092318;28;20039;-69
2023/04/20 08:47:51;;;;;;;10.00;3.20;;;7.60;99.90;;;;;;5128867;27;20066;-69
2023/04/20 08:50:18;;;;;;;6.82;3.28;;;7.60;99.90;;;;;;5084627;28;20032;-69
2023/04/20 08:52:44;;;;;;;6.03;3.42;;;7.60;99.90;;;;;;5091936;28;20040;-69
2023/04/20 08:55:13;;;;;;;7.05;3.55;;;7.70;99.90;;;;;;5084643;28;20082;-69
2023/04/20 08:57:40;;;;;;;7.50;3.88;;;7.70;99.90;;;;;;5077419;28;20043;-69
2023/04/20 09:00:09;;;;;;;8.02;3.50;;;7.70;99.90;;;;;;5112052;28;20044;-68
2023/04/20 09:02:34;;;;;;;9.18;4.40;;;7.70;99.90;;;;;;5078777;28;20089;-69
2023/04/20 09:05:02;;;;;;;7.28;3.88;;;7.60;99.90;;;;;;5111584;28;20434;-69
2023/04/20 09:07:28;;;;;;;8.93;4.55;;;7.60;99.90;;;;;;5110106;28;20047;-69
2023/04/20 09:09:58;;;;;;;9.30;4.57;;;7.60;99.90;;;;;;5092951;28;20044;-69
2023/04/20 09:12:24;;;;;;;8.82;4.00;;;7.80;99.90;;;;;;5092000;28;20036;-69
2023/04/20 09:14:51;;;;;;;8.15;3.83;;;7.90;99.90;;;;;;5109619;28;20040;-69
2023/04/20 09:17:28;;;;;;;7.18;4.10;;;7.90;99.90;;;;;;5111949;28;20539;-69
2023/04/20 09:19:54;;;;;;;9.07;4.15;;;7.90;99.90;;;;;;5091612;28;20158;-69
2023/04/20 09:22:34;;;;;;;8.20;4.20;;;7.90;99.90;;;;;;5094286;28;20032;-69
2023/04/20 09:25:13;;;;;;;9.52;4.22;;;7.90;99.90;;;;;;5111950;28;20082;-69
2023/04/20 09:27:39;;;;;;;9.48;4.28;;;7.90;99.90;;;;;;5093818;28;20032;-69
2023/04/20 09:30:05;;;;;;;11.45;4.47;;;7.90;99.90;;;;;;5112026;28;20089;-69
2023/04/20 09:32:31;;;;;;;9.23;4.45;;;7.90;99.90;;;;;;5092071;28;20071;-69
2023/04/20 09:34:57;;;;;;;8.90;4.57;;;7.90;99.90;;;;;;5111793;28;20508;-69
2023/04/20 09:37:23;;;;;;;8.52;4.32;;;8.00;99.90;;;;;;5095032;28;20064;-69
2023/04/20 09:39:49;;;;;;;11.10;4.43;;;8.00;99.90;;;;;;5111150;28;20055;-69
2023/04/20 09:42:16;;;;;;;10.40;4.45;;;8.00;99.90;;;;;;5111567;28;20050;-69
2023/04/20 09:44:42;;;;;;;10.13;4.43;;;8.10;99.90;;;;;;5094150;28;20036;-69
2023/04/20 09:47:17;;;;;;;9.30;4.93;;;8.20;99.90;;;;;;5127330;27;20483;-69
2023/04/20 09:49:46;;;;;;;11.48;4.93;;;8.20;99.90;;;;;;5109879;28;20043;-69
2023/04/20 09:52:17;;;;;;;10.13;4.93;;;8.20;99.90;;;;;;5112013;28;20039;-69
2023/04/20 09:54:43;;;;;;;8.57;4.50;;;8.20;99.90;;;;;;5109778;28;20556;-69
2023/04/20 09:57:10;;;;;;;8.75;4.80;;;8.20;99.90;;;;;;5101696;28;20083;-69
2023/04/20 09:59:36;;;;;;;11.27;4.80;;;8.20;99.90;;;;;;5105649;28;20043;-69
2023/04/20 10:02:07;;;;;;;8.30;4.40;;;8.10;99.90;;;;;;5094438;28;20081;-69
2023/04/20 10:04:33;;;;;;;10.82;5.07;;;8.20;99.90;;;;;;5079537;28;20063;-69
2023/04/20 10:07:02;;;;;;;11.55;5.25;;;8.20;99.90;;;;;;5091048;28;20385;-69
2023/04/20 10:09:29;;;;;;;10.98;4.80;;;8.20;99.90;;;;;;5091226;28;20036;-69
2023/04/20 10:12:08;;;;;;;11.68;5.38;;;8.20;99.90;;;;;;5091708;28;20400;-69
2023/04/20 10:14:34;;;;;;;10.43;4.53;;;8.20;99.90;;;;;;5073775;28;20039;-69
2023/04/20 10:17:08;;;;;;;9.25;4.80;;;8.20;99.90;;;;;;5091284;28;20036;-69
2023/04/20 10:19:39;;;;;;;9.82;4.40;;;8.30;99.90;;;;;;5096339;28;20036;-69
2023/04/20 10:22:05;;;;;;;10.45;4.82;;;8.50;99.90;;;;;;5077695;28;20492;-69
2023/04/20 10:24:31;;;;;;;9.10;4.80;;;8.50;99.90;;;;;;5105855;28;20476;-69
2023/04/20 10:26:57;;;;;;;10.77;5.13;;;8.60;99.90;;;;;;5093191;28;20039;-69
2023/04/20 10:29:24;;;;;;;9.55;4.57;;;8.70;99.90;;;;;;5076051;28;20130;-69
2023/04/20 10:31:50;;;;;;;10.23;4.72;;;8.80;99.90;;;;;;5080829;28;20503;-69
2023/04/20 10:34:17;;;;;;;9.90;4.82;;;8.80;99.90;;;;;;5112148;28;20066;-69
2023/04/20 10:36:43;;;;;;;9.85;4.65;;;8.70;99.90;;;;;;5108757;28;20447;-69
2023/04/20 10:39:16;;;;;;;9.43;4.90;;;8.70;99.90;;;;;;5085093;28;20072;-69
2023/04/20 10:42:09;;;;;;;8.88;4.40;;;8.70;99.90;;;;;;5103145;28;20031;-69
2023/04/20 10:44:35;;;;;;;;;;;8.70;99.90;;;;;;5074778;28;20461;-69
2023/04/20 10:47:00;;;;;;;11.88;4.68;;;9.00;99.90;;;;;;5095592;28;19920;-69
2023/04/20 10:49:28;;;;;;;8.70;4.43;;;9.00;99.90;;;;;;5093718;28;20032;-69
2023/04/20 10:51:54;;;;;;;12.30;4.80;;;9.00;99.90;;;;;;5110945;28;20043;-69
2023/04/20 10:54:20;;;;;;;9.15;4.53;;;9.00;99.90;;;;;;5113237;28;20044;-69
2023/04/20 10:56:47;;;;;;;10.30;5.20;;;9.00;99.90;;;;;;5080460;28;20048;-69
2023/04/20 10:59:21;;;;;;;8.82;4.80;;;8.80;99.90;;;;;;5087639;28;20046;-69
2023/04/20 11:01:50;;;;;;;9.18;5.22;;;8.80;99.90;;;;;;5109124;28;20492;-69
2023/04/20 11:04:16;;;;;;;9.55;5.15;;;8.70;99.90;;;;;;5102039;28;20442;-69
2023/04/20 11:06:43;;;;;;;8.35;4.25;;;8.80;99.90;;;;;;5087264;28;20035;-69
2023/04/20 11:09:27;;;;;;;10.95;5.32;;;8.70;99.90;;;;;;5109865;28;20040;-69
2023/04/20 11:12:02;;;;;;;11.30;5.50;;;8.80;99.90;;;;;;5084473;28;20032;-69
2023/04/20 11:14:29;;;;;;;10.13;5.40;;;8.80;99.90;;;;;;5077445;28;20516;-69
2023/04/20 11:16:55;;;;;;;10.10;5.40;;;8.80;99.90;;;;;;5113916;28;20085;-69
2023/04/20 11:19:29;;;;;;;9.73;5.28;;;8.80;99.90;;;;;;5101247;28;20040;-69
2023/04/20 11:21:55;;;;;;;10.95;6.32;;;8.80;99.90;;;;;;5110160;28;20088;-69
2023/04/20 11:24:25;;;;;;;8.98;4.88;;;8.80;99.90;;;;;;5112142;28;20118;-69
2023/04/20 11:26:53;;;;;;;11.27;6.00;;;8.90;99.90;;;;;;5091025;28;20043;-69
2023/04/20 11:29:38;;;;;;;11.35;6.10;;;9.30;99.90;;;;;;5076827;28;20043;-69
2023/04/20 11:32:06;;;;;;;12.63;6.60;;;9.30;99.90;;;;;;5105565;28;20416;-69
2023/04/20 11:34:33;;;;;;;10.60;6.22;;;9.20;99.90;;;;;;5086944;28;20035;-69
2023/04/20 11:37:06;;;;;;;12.35;7.03;;;9.40;99.90;;;;;;5111312;27;20492;-69
2023/04/20 11:39:32;;;;;;;11.57;6.05;;;9.50;99.90;;;;;;5099754;28;20040;-69
2023/04/20 11:41:58;;;;;;;10.77;6.95;;;9.60;99.90;;;;;;5075697;28;20059;-69
2023/04/20 11:44:24;;;;;;;11.07;6.50;;;9.60;99.90;;;;;;5092939;28;20044;-69
2023/04/20 11:46:53;;;;;;;11.70;6.95;;;9.50;99.90;;;;;;5089268;28;20523;-69
2023/04/20 11:49:19;;;;;;;12.35;6.30;;;9.70;99.90;;;;;;5094460;28;20032;-69
2023/04/20 11:51:46;;;;;;;10.70;6.60;;;9.80;99.90;;;;;;5120118;27;20036;-69
2023/04/20 11:54:12;;;;;;;11.63;6.25;;;9.80;99.90;;;;;;5095026;28;20120;-69
2023/04/20 11:56:38;;;;;;;10.90;6.50;;;10.10;99.90;;;;;;5104091;28;20048;-69
2023/04/20 11:59:04;;;;;;;12.15;6.82;;;10.20;99.90;;;;;;5100412;28;20109;-69
2023/04/20 12:01:30;;;;;;;11.27;6.03;;;10.30;99.90;;;;;;5108236;28;20043;-69
2023/04/20 12:03:56;;;;;;;12.07;6.50;;;10.50;99.90;;;;;;5111382;28;20036;-69
2023/04/20 12:06:21;;;;;;;12.40;6.55;;;10.60;99.90;;;;;;5108469;27;20118;-69
2023/04/20 12:08:47;;;;;;;10.57;6.15;;;10.70;99.90;;;;;;5095942;28;20031;-69
2023/04/20 12:11:15;;;;;;;9.57;6.05;;;10.80;99.90;;;;;;5096232;28;20031;-69
2023/04/20 12:13:41;;;;;;;11.63;6.93;;;11.00;99.90;;;;;;5098337;28;20028;-69
2023/04/20 12:16:07;;;;;;;11.68;7.03;;;11.00;99.90;;;;;;5100315;28;20508;-69
2023/04/20 12:18:33;;;;;;;12.18;7.85;;;10.90;99.90;;;;;;5074793;28;20040;-69
2023/04/20 12:20:59;;;;;;;13.68;7.20;;;10.90;99.90;;;;;;5077692;28;20043;-69
2023/04/20 12:23:25;;;;;;;13.45;7.75;;;10.90;99.90;;;;;;5094468;28;20061;-69
2023/04/20 12:25:51;;;;;;;12.77;8.27;;;11.00;99.90;;;;;;5082692;28;20562;-69
2023/04/20 12:28:16;;;;;;;11.10;7.30;;;10.80;99.90;;;;;;5108765;28;20122;-70
2023/04/20 12:30:42;;;;;;;12.65;7.57;;;10.70;99.90;;;;;;5094843;28;20042;-69
2023/04/20 12:33:07;;;;;;;13.38;8.63;;;10.60;99.90;;;;;;5087473;28;20036;-69
2023/04/20 12:35:33;;;;;;;11.75;6.88;;;10.60;99.90;;;;;;5093338;28;20124;-69
2023/04/20 12:37:59;;;;;;;10.77;7.70;;;10.50;99.90;;;;;;5092257;28;20089;-69
2023/04/20 12:40:24;;;;;;;12.57;7.22;;;10.80;99.90;;;;;;5102913;28;20043;-69
2023/04/20 12:42:50;;;;;;;11.07;6.95;;;10.80;99.90;;;;;;5112785;28;20134;-69
2023/04/20 12:45:16;;;;;;;11.57;6.75;;;10.80;99.90;;;;;;5094947;28;20044;-68
2023/04/20 12:47:41;;;;;;;11.25;7.68;;;11.00;99.90;;;;;;5075288;28;20036;-69
2023/04/20 12:50:07;;;;;;;11.07;7.97;;;11.00;99.90;;;;;;5108408;28;20043;-69
2023/04/20 12:52:33;;;;;;;12.10;7.57;;;11.10;99.90;;;;;;5092574;28;20114;-69